< Typhoon 196822 1968 Season Typhoon 196824 >
Typhoon 196823 (KIT)
General InformationTrack Information on Google Maps || Disaster Info.ResourceGoogle EarthGE AnimationAtom FeedGeoJSON
Detalied Best Track (Time Zone = UTC)
Year Month Day Hour Lat. Long. Pressure (hPa) Wind (kt) Class Image Chart
1968 10 26 00 10.0 166.0 1008 0 2 -- Chart
1968 10 26 06 10.0 165.5 1006 0 2 -- Chart
1968 10 26 12 10.0 164.8 1008 0 2 -- Chart
1968 10 26 18 10.0 164.2 1008 0 2 -- Chart
1968 10 27 00 10.0 163.5 1008 0 2 -- Chart
1968 10 27 06 10.0 162.9 1006 0 2 -- Chart
1968 10 27 12 10.0 162.3 1008 0 2 -- Chart
1968 10 27 18 10.0 161.7 1008 0 2 -- Chart
1968 10 28 00 10.0 161.0 1008 0 2 -- Chart
1968 10 28 06 9.6 159.5 1006 0 2 -- Chart
1968 10 28 12 9.2 158.0 1006 0 2 -- Chart
1968 10 28 18 8.7 156.6 1004 0 2 -- Chart
1968 10 29 00 8.2 155.2 1006 0 2 -- Chart
1968 10 29 06 8.1 154.2 1006 0 2 -- Chart
1968 10 29 12 8.0 153.1 1007 0 2 -- Chart
1968 10 29 18 8.0 152.1 1006 0 2 -- Chart
1968 10 30 00 8.0 151.1 1006 0 2 -- Chart
1968 10 30 06 8.0 150.6 1003 0 2 -- Chart
1968 10 30 12 8.0 150.2 1006 0 2 -- Chart
1968 10 30 18 8.0 149.8 1002 0 2 -- Chart
1968 10 31 00 8.0 149.4 1004 0 2 -- Chart
1968 10 31 06 8.1 148.5 1002 0 2 -- Chart
1968 10 31 12 9.1 147.6 1002 0 2 -- Chart
1968 10 31 18 10.9 147.6 1000 0 2 -- Chart
1968 11 1 00 12.5 147.4 992 0 9 -- Chart
1968 11 1 06 13.7 146.9 985 0 9 -- Chart
1968 11 1 12 14.3 146.8 985 0 9 -- Chart
1968 11 1 18 14.9 146.4 985 0 9 -- Chart
1968 11 2 00 15.3 146.3 980 0 9 -- Chart
1968 11 2 06 15.7 146.1 980 0 9 -- Chart
1968 11 2 12 16.3 146.0 980 0 9 -- Chart
1968 11 2 18 17.4 146.0 975 0 9 -- Chart
1968 11 3 00 18.3 146.0 970 0 9 -- Chart
1968 11 3 06 19.5 146.4 965 0 9 -- Chart
1968 11 3 12 20.7 146.7 965 0 9 -- Chart
1968 11 3 18 22.3 146.9 960 0 9 -- Chart
1968 11 4 00 24.2 147.2 960 0 9 -- Chart
1968 11 4 06 26.5 148.5 965 0 9 -- Chart
1968 11 4 12 28.7 150.7 970 0 9 -- Chart
1968 11 4 18 30.6 153.8 975 0 9 -- Chart
1968 11 5 00 33.4 158.0 980 0 9 -- Chart
1968 11 5 06 34.9 162.0 985 0 9 -- Chart
1968 11 5 12 35.3 166.7 985 0 6 -- Chart
1968 11 5 18 35.2 171.4 985 0 6 -- Chart
1968 11 6 00 34.4 176.4 988 0 6 -- Chart
1968 11 6 06 33.2 181.1 988 0 6 -- Chart
Japan Meteorological Agency Best Track Data | Correction Date : 1989-06-01
< Typhoon 196822 1968 Season Typhoon 196824 >

Help